Time;durP1;ratioP1;P1;durP2;ratioP2;P2;SDS_P1;SDS_P2;PMS_P1;PMS_P2;Temp;Humidity;BMP_temperature;BMP_pressure;BME280_temperature;BME280_humidity;BME280_pressure;Samples;Min_cycle;Max_cycle;Signal;HPM_P1;HPM_P2
2022/12/09 00:01:10;;;;;;;28.23;11.75;;;;;;;-4.56;96.32;92713.56;5009254;28;20056;-69
2022/12/09 00:03:37;;;;;;;27.52;11.20;;;;;;;-4.53;95.78;92714.75;5009809;28;20046;-68
2022/12/09 00:06:12;;;;;;;21.48;9.85;;;;;;;-4.52;95.86;92717.09;5009445;28;20099;-70
2022/12/09 00:08:38;;;;;;;21.05;10.20;;;;;;;-4.65;95.70;92705.75;5009758;28;20041;-69
2022/12/09 00:11:06;;;;;;;31.35;12.55;;;;;;;-4.86;96.94;92718.63;5009657;28;20050;-69
2022/12/09 00:13:33;;;;;;;28.02;12.23;;;;;;;-4.70;96.75;92716.72;5009651;28;20376;-69
2022/12/09 00:16:05;;;;;;;26.60;11.20;;;;;;;-4.57;96.42;92717.34;5009666;28;20098;-69
2022/12/09 00:18:33;;;;;;;29.90;12.40;;;;;;;-4.45;95.20;92721.81;4991797;28;20052;-69
2022/12/09 00:21:12;;;;;;;25.25;11.00;;;;;;;-4.34;95.66;92706.75;5005282;28;20045;-69
2022/12/09 00:23:39;;;;;;;28.90;12.13;;;;;;;-4.38;94.48;92705.16;5006041;28;20500;-69
2022/12/09 00:26:06;;;;;;;25.73;10.35;;;;;;;-4.35;94.64;92712.47;5001646;28;20081;-69
2022/12/09 00:28:33;;;;;;;33.35;13.45;;;;;;;-4.30;94.38;92706.84;4995173;28;20053;-69
2022/12/09 00:31:01;;;;;;;28.50;11.80;;;;;;;-4.42;94.59;92710.41;5012908;28;20453;-69
2022/12/09 00:33:30;;;;;;;27.00;12.15;;;;;;;-4.28;94.46;92707.25;5012463;28;20042;-69
2022/12/09 00:36:09;;;;;;;35.53;13.65;;;;;;;-4.21;94.28;92705.47;5000937;28;20050;-69
2022/12/09 00:38:36;;;;;;;34.92;13.63;;;;;;;-4.15;93.75;92708.66;5014298;28;20044;-69
2022/12/09 00:41:04;;;;;;;26.98;10.98;;;;;;;-4.11;93.67;92703.38;5014700;28;20452;-68
2022/12/09 00:43:31;;;;;;;34.35;13.38;;;;;;;-4.19;93.66;92701.69;5014050;28;20037;-68
2022/12/09 00:45:58;;;;;;;26.35;11.40;;;;;;;-4.30;94.27;92701.47;5013588;28;20103;-68
2022/12/09 00:48:26;;;;;;;23.00;9.13;;;;;;;-4.34;94.46;92708.66;5013686;28;20042;-68
2022/12/09 00:50:53;;;;;;;19.35;8.82;;;;;;;-4.27;94.56;92693.50;5013649;28;20453;-68
2022/12/09 00:53:20;;;;;;;20.40;9.07;;;;;;;-4.15;94.14;92695.25;5012856;28;20104;-69
2022/12/09 00:55:47;;;;;;;19.73;8.48;;;;;;;-4.06;93.83;92695.84;5007291;28;20414;-68
2022/12/09 00:58:14;;;;;;;17.23;7.60;;;;;;;-4.04;93.50;92703.53;5001184;28;20038;-68
2022/12/09 01:00:41;;;;;;;20.25;7.93;;;;;;;-4.03;93.78;92711.19;4994534;28;20068;-69
2022/12/09 01:03:12;;;;;;;16.65;7.53;;;;;;;-3.95;93.15;92708.66;5005839;28;20069;-69
2022/12/09 01:05:40;;;;;;;16.60;8.07;;;;;;;-3.92;93.09;92710.66;5012973;28;20034;-69
2022/12/09 01:08:08;;;;;;;17.55;7.80;;;;;;;-3.98;92.64;92701.31;5012871;28;20091;-68
2022/12/09 01:10:36;;;;;;;19.60;8.40;;;;;;;-4.08;93.62;92702.69;5012887;28;20045;-68
2022/12/09 01:13:03;;;;;;;19.08;8.40;;;;;;;-3.93;93.23;92685.72;5004096;28;20050;-68
2022/12/09 01:15:30;;;;;;;21.75;8.82;;;;;;;-3.88;92.63;92676.66;5007768;28;20045;-68
2022/12/09 01:17:57;;;;;;;20.92;9.40;;;;;;;-3.94;92.64;92686.88;5012676;28;20048;-68
2022/12/09 01:20:25;;;;;;;21.88;8.70;;;;;;;-3.99;93.20;92689.84;5013066;28;20060;-68
2022/12/09 01:22:51;;;;;;;21.35;9.00;;;;;;;-4.11;93.07;92696.09;5012563;28;20040;-68
2022/12/09 01:25:18;;;;;;;17.45;7.80;;;;;;;-4.06;93.74;92692.38;5010590;28;20038;-68
2022/12/09 01:27:45;;;;;;;17.25;7.65;;;;;;;-3.93;93.38;92695.69;5001101;28;20038;-68
2022/12/09 01:30:12;;;;;;;19.52;7.90;;;;;;;-3.96;93.67;92696.38;5010058;28;20060;-68
2022/12/09 01:32:40;;;;;;;18.33;8.07;;;;;;;-3.88;93.22;92682.78;5012705;28;20099;-69
2022/12/09 01:35:08;;;;;;;17.92;8.20;;;;;;;-3.87;92.92;92670.91;5011980;28;20046;-68
2022/12/09 01:37:36;;;;;;;17.33;8.00;;;;;;;-3.81;92.38;92666.03;5012547;28;20052;-68
2022/12/09 01:40:06;;;;;;;20.00;8.25;;;;;;;-3.72;92.76;92668.47;5012351;28;20385;-68
2022/12/09 01:42:33;;;;;;;16.83;8.00;;;;;;;-3.63;92.62;92661.00;5011506;28;20056;-68
2022/12/09 01:45:18;;;;;;;16.80;7.88;;;;;;;-3.53;92.35;92659.63;5011837;28;20057;-68
2022/12/09 01:47:53;;;;;;;16.85;8.02;;;;;;;-3.56;91.68;92668.38;5011844;28;20050;-68
2022/12/09 01:50:21;;;;;;;17.13;8.00;;;;;;;-3.78;92.70;92654.63;5012120;28;20509;-68
2022/12/09 01:52:49;;;;;;;16.60;8.57;;;;;;;-3.73;93.06;92653.53;5012156;28;20041;-68
2022/12/09 01:55:16;;;;;;;19.35;8.50;;;;;;;-3.56;92.59;92653.09;5010397;28;20052;-68
2022/12/09 01:57:44;;;;;;;17.70;7.72;;;;;;;-3.62;93.18;92646.47;5000085;28;20058;-68
2022/12/09 02:00:12;;;;;;;16.63;8.50;;;;;;;-3.46;92.35;92632.91;4992391;28;20049;-68
2022/12/09 02:02:42;;;;;;;19.52;8.77;;;;;;;-3.39;91.99;92632.28;4998622;28;20426;-68
2022/12/09 02:05:09;;;;;;;17.50;8.55;;;;;;;-3.27;91.63;92629.41;5018884;28;20042;-68
2022/12/09 02:07:36;;;;;;;21.55;8.70;;;;;;;-3.25;91.73;92629.81;5001139;28;20483;-67
2022/12/09 02:10:11;;;;;;;20.40;8.65;;;;;;;-3.15;91.46;92631.88;4993748;28;20045;-68
2022/12/09 02:13:04;;;;;;;16.48;8.30;;;;;;;-3.08;91.02;92633.88;5011826;28;20402;-68
2022/12/09 02:15:45;;;;;;;17.80;8.68;;;;;;;-3.35;91.91;92619.69;5007199;28;21499;-68
2022/12/09 02:18:23;;;;;;;19.33;8.68;;;;;;;-3.35;92.19;92625.06;5003505;28;20148;-68
2022/12/09 02:21:04;;;;;;;20.25;8.93;;;;;;;-3.31;92.25;92612.47;5011457;28;20052;-68
2022/12/09 02:23:33;;;;;;;16.60;7.35;;;;;;;-3.29;92.42;92615.56;5010887;28;20641;-68
2022/12/09 02:26:14;;;;;;;17.25;8.13;;;;;;;-3.35;92.93;92614.31;5009847;28;20038;-68
2022/12/09 02:29:07;;;;;;;14.95;7.20;;;;;;;-3.48;93.28;92609.16;5011744;28;20034;-68
2022/12/09 02:31:56;;;;;;;15.52;7.18;;;;;;;-3.33;92.78;92593.28;4996736;28;20412;-68
2022/12/09 02:34:30;;;;;;;16.08;7.68;;;;;;;-3.52;93.02;92594.13;4997075;28;21647;-68
2022/12/09 02:37:21;;;;;;;14.25;7.50;;;;;;;-3.51;94.21;92580.38;5011002;28;20433;-68
2022/12/09 02:39:52;;;;;;;14.80;7.20;;;;;;;-3.31;93.10;92574.91;5011137;28;20049;-68
2022/12/09 02:42:22;;;;;;;20.98;8.25;;;;;;;-3.19;92.23;92576.63;5010966;28;20045;-68
2022/12/09 02:44:50;;;;;;;14.43;6.55;;;;;;;-3.08;91.04;92577.53;5010859;28;20045;-68
2022/12/09 02:47:21;;;;;;;16.10;6.95;;;;;;;-2.97;90.03;92588.44;5010922;28;20072;-68
2022/12/09 02:49:53;;;;;;;16.35;8.05;;;;;;;-3.18;90.13;92586.22;5011170;28;20040;-68
2022/12/09 02:52:21;;;;;;;17.73;8.02;;;;;;;-3.76;94.90;92585.34;4984808;28;20050;-69
2022/12/09 02:54:49;;;;;;;15.02;7.15;;;;;;;-3.31;93.41;92578.38;5010243;28;20072;-68
2022/12/09 02:57:21;;;;;;;15.70;7.05;;;;;;;-3.11;91.64;92572.91;4998088;28;20060;-68
2022/12/09 02:59:47;;;;;;;17.80;7.72;;;;;;;-3.04;91.88;92570.31;5010730;28;20042;-68
2022/12/09 03:02:24;;;;;;;16.13;7.20;;;;;;;-2.96;91.30;92565.81;5010247;28;20077;-68
2022/12/09 03:05:30;;;;;;;15.57;7.28;;;;;;;-2.88;91.01;92554.03;5010848;28;20054;-69
2022/12/09 03:07:57;;;;;;;15.60;7.47;;;;;;;-2.74;90.74;92553.44;4975307;28;20216;-68
2022/12/09 03:10:51;;;;;;;17.02;7.20;;;;;;;-2.70;90.40;92554.25;4995242;28;20041;-69
2022/12/09 03:13:36;;;;;;;16.95;7.32;;;;;;;-2.70;90.15;92541.59;5010185;28;20091;-68
2022/12/09 03:16:12;;;;;;;15.35;6.60;;;;;;;-2.68;89.16;92533.19;4999390;28;20284;-69
2022/12/09 03:18:43;;;;;;;16.35;7.13;;;;;;;-2.63;88.95;92539.00;5010639;28;20046;-69
2022/12/09 03:21:14;;;;;;;23.95;9.52;;;;;;;-2.53;88.70;92536.81;5010395;28;20073;-68
2022/12/09 03:23:45;;;;;;;23.70;9.68;;;;;;;-2.58;88.79;92534.44;5010710;28;20453;-68
2022/12/09 03:26:14;;;;;;;22.30;9.23;;;;;;;-2.48;88.70;92534.56;4997727;28;20042;-68
2022/12/09 03:28:47;;;;;;;21.27;8.13;;;;;;;-2.47;88.46;92535.34;5010465;28;20042;-69
2022/12/09 03:31:17;;;;;;;19.17;7.70;;;;;;;-2.45;88.03;92533.06;5010068;28;20037;-69
2022/12/09 03:33:49;;;;;;;19.20;7.87;;;;;;;-2.33;88.35;92526.66;5010356;28;20045;-68
2022/12/09 03:36:17;;;;;;;19.02;7.75;;;;;;;-2.29;87.97;92522.09;4996314;28;20061;-69
2022/12/09 03:38:47;;;;;;;20.95;8.23;;;;;;;-2.28;87.64;92521.72;5010362;28;20064;-69
2022/12/09 03:41:29;;;;;;;19.67;8.20;;;;;;;-2.18;87.74;92517.59;5010104;28;20049;-69
2022/12/09 03:44:18;;;;;;;19.95;7.93;;;;;;;-2.10;87.83;92521.88;5009830;28;20052;-68
2022/12/09 03:46:45;;;;;;;16.10;7.18;;;;;;;-2.28;88.72;92513.66;5008802;28;20041;-68
2022/12/09 03:49:13;;;;;;;15.68;7.15;;;;;;;-2.29;89.00;92520.19;5010030;28;20105;-69
2022/12/09 03:51:59;;;;;;;17.13;7.80;;;;;;;-2.21;89.23;92519.09;5000076;28;20046;-69
2022/12/09 03:54:35;;;;;;;19.13;8.20;;;;;;;-2.12;89.10;92513.44;4981291;28;21376;-70
2022/12/09 03:57:03;;;;;;;27.65;11.30;;;;;;;-2.37;90.53;92517.78;4992048;28;20034;-69
2022/12/09 03:59:33;;;;;;;20.70;9.05;;;;;;;-2.46;91.54;92510.78;4995652;28;20042;-68
2022/12/09 04:02:02;;;;;;;19.67;8.40;;;;;;;-2.17;90.97;92507.59;4995420;28;20120;-69
2022/12/09 04:04:29;;;;;;;24.33;9.80;;;;;;;-2.18;90.64;92498.78;5009903;28;20046;-69
2022/12/09 04:06:56;;;;;;;21.90;9.30;;;;;;;-2.10;91.05;92486.94;5009184;28;20103;-69
2022/12/09 04:09:23;;;;;;;21.33;8.90;;;;;;;-2.03;90.20;92481.66;5001971;28;20034;-69
2022/12/09 04:11:50;;;;;;;20.13;9.18;;;;;;;-1.98;90.65;92479.75;5004796;28;20042;-69
2022/12/09 04:14:17;;;;;;;24.88;10.43;;;;;;;-2.10;91.53;92476.19;5009617;28;20111;-69
2022/12/09 04:16:44;;;;;;;21.23;9.50;;;;;;;-2.01;92.04;92471.28;5009935;28;20046;-69
2022/12/09 04:19:11;;;;;;;25.20;9.95;;;;;;;-1.95;92.56;92466.34;5009401;28;20050;-69
2022/12/09 04:21:38;;;;;;;23.67;9.60;;;;;;;-1.98;92.25;92459.03;5009796;28;20041;-69
2022/12/09 04:24:06;;;;;;;27.55;10.38;;;;;;;-2.16;92.66;92458.88;5009430;28;20099;-69
2022/12/09 04:26:32;;;;;;;23.67;10.23;;;;;;;-2.18;93.49;92463.09;5000744;28;20046;-69
2022/12/09 04:29:00;;;;;;;21.20;9.45;;;;;;;-2.17;93.48;92451.97;5004541;28;20080;-69
2022/12/09 04:31:26;;;;;;;30.77;10.85;;;;;;;-2.25;93.85;92453.06;5010303;28;20403;-69
2022/12/09 04:33:53;;;;;;;24.27;10.85;;;;;;;-2.18;94.71;92450.41;5012256;28;20045;-69
2022/12/09 04:36:20;;;;;;;30.48;10.80;;;;;;;-2.05;94.44;92448.22;5009868;28;20049;-69
2022/12/09 04:38:47;;;;;;;24.40;10.10;;;;;;;-2.06;94.98;92450.13;5009849;28;20499;-69
2022/12/09 04:41:14;;;;;;;25.08;10.90;;;;;;;-2.52;96.75;92445.09;5009502;28;20499;-69
2022/12/09 04:43:41;;;;;;;28.52;10.77;;;;;;;-2.45;98.05;92449.78;5009828;28;20045;-69
2022/12/09 04:46:14;;;;;;;27.48;11.35;;;;;;;-2.30;97.51;92437.25;5009051;28;20049;-69
2022/12/09 04:48:42;;;;;;;24.55;10.55;;;;;;;-2.41;97.96;92437.94;5009293;28;20050;-69
2022/12/09 04:51:11;;;;;;;26.90;10.63;;;;;;;-2.43;98.96;92437.53;5003102;28;20039;-69
2022/12/09 04:53:39;;;;;;;26.10;10.45;;;;;;;-2.29;98.21;92434.19;4984673;28;20054;-69
2022/12/09 04:56:11;;;;;;;28.38;10.93;;;;;;;-2.24;97.99;92431.16;4990499;28;20038;-69
2022/12/09 04:58:38;;;;;;;25.13;11.07;;;;;;;-2.10;98.12;92435.13;4990170;28;20046;-69
2022/12/09 05:01:10;;;;;;;27.52;11.65;;;;;;;-2.21;97.80;92426.97;4996747;28;20054;-69
2022/12/09 05:03:38;;;;;;;24.38;10.38;;;;;;;-2.35;97.96;92426.88;5006611;28;20084;-69
2022/12/09 05:06:07;;;;;;;29.55;11.77;;;;;;;-2.27;98.71;92423.84;5008729;28;20509;-69
2022/12/09 05:08:34;;;;;;;23.75;11.02;;;;;;;-2.19;98.27;92423.91;5008240;28;20041;-69
2022/12/09 05:11:02;;;;;;;27.38;12.43;;;;;;;-2.23;98.61;92423.88;4996483;28;20042;-69
2022/12/09 05:13:30;;;;;;;27.30;11.57;;;;;;;-2.24;98.47;92417.72;5024442;28;20046;-70
2022/12/09 05:16:05;;;;;;;26.75;11.48;;;;;;;-2.19;98.73;92423.91;5008713;28;20398;-69
2022/12/09 05:18:41;;;;;;;28.27;12.02;;;;;;;-2.31;100.00;92424.97;5012922;28;20483;-69
2022/12/09 05:21:11;;;;;;;26.48;11.43;;;;;;;-2.31;99.53;92416.91;5011083;28;20487;-69
2022/12/09 05:23:38;;;;;;;29.85;12.73;;;;;;;-2.50;100.00;92424.03;5012674;28;20403;-69
2022/12/09 05:26:07;;;;;;;30.30;11.93;;;;;;;-2.44;100.00;92419.09;5005666;28;20046;-69
2022/12/09 05:28:35;;;;;;;28.02;12.40;;;;;;;-2.47;100.00;92414.47;5004564;28;20037;-69
2022/12/09 05:31:07;;;;;;;29.90;12.73;;;;;;;-2.42;100.00;92417.56;5011621;28;20099;-69
2022/12/09 05:33:34;;;;;;;37.80;14.95;;;;;;;-2.30;100.00;92411.16;5012616;28;20046;-69
2022/12/09 05:36:01;;;;;;;56.33;19.40;;;;;;;-2.30;100.00;92413.06;5010239;28;20046;-68
2022/12/09 05:38:29;;;;;;;38.03;14.30;;;;;;;-2.31;100.00;92411.53;5012467;28;20045;-70
2022/12/09 05:40:58;;;;;;;36.92;14.30;;;;;;;-2.18;100.00;92414.72;5011594;28;20042;-68
2022/12/09 05:43:25;;;;;;;32.47;13.50;;;;;;;-2.32;100.00;92415.34;5011123;28;20042;-69
2022/12/09 05:45:52;;;;;;;30.90;13.40;;;;;;;-2.58;100.00;92408.97;5012122;28;20572;-69
2022/12/09 05:48:19;;;;;;;35.83;14.52;;;;;;;-2.52;100.00;92410.19;5011727;28;20060;-70
2022/12/09 05:50:56;;;;;;;32.20;13.75;;;;;;;-2.47;100.00;92403.72;5024966;28;20042;-69
2022/12/09 05:53:24;;;;;;;31.67;13.07;;;;;;;-2.58;100.00;92408.22;4991446;28;20889;-69
2022/12/09 05:55:52;;;;;;;35.10;13.32;;;;;;;-2.42;100.00;92406.06;5011134;28;20042;-69
2022/12/09 05:58:19;;;;;;;33.60;13.43;;;;;;;-2.42;100.00;92406.06;4992325;28;20446;-69
2022/12/09 06:00:46;;;;;;;33.50;13.82;;;;;;;-2.33;100.00;92405.78;4999780;28;20046;-69
2022/12/09 06:03:14;;;;;;;35.78;14.45;;;;;;;-2.26;100.00;92406.56;5008569;28;20038;-69
2022/12/09 06:05:41;;;;;;;33.33;13.68;;;;;;;-2.23;100.00;92408.53;5026976;28;20085;-69
2022/12/09 06:08:09;;;;;;;34.00;14.25;;;;;;;-2.09;100.00;92402.50;5009539;28;20052;-69
2022/12/09 06:10:40;;;;;;;35.10;14.13;;;;;;;-2.11;100.00;92399.41;4999540;28;20072;-70
2022/12/09 06:13:07;;;;;;;35.65;14.20;;;;;;;-2.13;100.00;92404.38;5011110;28;20046;-68
2022/12/09 06:15:34;;;;;;;39.90;15.18;;;;;;;-2.05;100.00;92405.22;5026485;28;20054;-66
2022/12/09 06:18:02;;;;;;;41.45;15.52;;;;;;;-2.09;100.00;92405.19;5010391;28;20525;-66
2022/12/09 06:20:29;;;;;;;61.53;20.08;;;;;;;-2.20;100.00;92396.25;5011304;28;20050;-66
2022/12/09 06:22:56;;;;;;;58.65;20.65;;;;;;;-2.12;100.00;92399.78;5003152;28;20042;-65
2022/12/09 06:25:23;;;;;;;49.80;18.20;;;;;;;-2.10;100.00;92405.56;4995505;28;20042;-67
2022/12/09 06:27:52;;;;;;;39.70;15.73;;;;;;;-1.95;100.00;92398.34;5000231;28;20049;-67
2022/12/09 06:30:19;;;;;;;39.50;14.27;;;;;;;-1.92;100.00;92394.94;5010909;28;20408;-67
2022/12/09 06:32:46;;;;;;;35.35;14.43;;;;;;;-1.93;100.00;92398.75;5011039;28;20046;-66
2022/12/09 06:35:14;;;;;;;36.67;14.75;;;;;;;-1.91;100.00;92399.94;5010879;28;20044;-67
2022/12/09 06:37:42;;;;;;;40.88;15.60;;;;;;;-1.81;100.00;92401.94;5011396;28;20038;-67
2022/12/09 06:40:09;;;;;;;32.55;13.77;;;;;;;-1.98;100.00;92397.19;5012617;28;20108;-67
2022/12/09 06:42:36;;;;;;;38.72;15.93;;;;;;;-2.03;100.00;92406.38;5005479;28;20392;-67
2022/12/09 06:45:04;;;;;;;36.97;15.48;;;;;;;-1.91;100.00;92401.84;4974878;28;20050;-66
2022/12/09 06:47:32;;;;;;;38.78;14.90;;;;;;;-1.90;100.00;92398.00;5002166;28;20041;-68
2022/12/09 06:50:00;;;;;;;40.08;16.15;;;;;;;-2.07;100.00;92399.44;5007267;28;20505;-67
2022/12/09 06:52:32;;;;;;;36.47;14.13;;;;;;;-2.34;100.00;92396.91;5002189;28;20497;-67
2022/12/09 06:55:00;;;;;;;46.42;14.30;;;;;;;-2.46;100.00;92399.88;5025300;28;20042;-67
2022/12/09 06:57:27;;;;;;;30.33;13.50;;;;;;;-2.74;100.00;92401.16;4998038;28;20046;-67
2022/12/09 06:59:54;;;;;;;42.05;14.55;;;;;;;-2.53;100.00;92402.53;5005251;28;20044;-66
2022/12/09 07:02:21;;;;;;;36.10;14.07;;;;;;;-2.76;100.00;92391.94;5002247;28;20058;-66
2022/12/09 07:04:55;;;;;;;37.60;15.45;;;;;;;-2.79;100.00;92396.13;5010665;28;20038;-66
2022/12/09 07:07:22;;;;;;;40.85;15.02;;;;;;;-2.52;100.00;92388.69;5009900;28;20677;-66
2022/12/09 07:09:49;;;;;;;35.25;13.45;;;;;;;-2.33;100.00;92387.72;5010894;28;20479;-66
2022/12/09 07:12:17;;;;;;;33.85;14.38;;;;;;;-2.62;100.00;92389.38;5010458;28;20049;-66
2022/12/09 07:14:44;;;;;;;31.38;14.55;;;;;;;-2.60;100.00;92395.16;5010977;28;20038;-66
2022/12/09 07:17:16;;;;;;;32.72;14.52;;;;;;;-2.43;100.00;92394.53;5009917;28;20053;-66
2022/12/09 07:19:43;;;;;;;38.03;14.55;;;;;;;-2.48;100.00;92394.88;5010860;28;20037;-66
2022/12/09 07:22:11;;;;;;;36.60;14.65;;;;;;;-2.36;100.00;92393.06;4992113;28;20046;-66
2022/12/09 07:24:38;;;;;;;37.40;15.23;;;;;;;-2.23;100.00;92391.66;4983040;28;20064;-66
2022/12/09 07:27:07;;;;;;;48.38;15.55;;;;;;;-2.30;100.00;92392.34;4990830;28;20406;-66
2022/12/09 07:29:41;;;;;;;35.05;15.05;;;;;;;-2.21;100.00;92386.66;4999094;28;20053;-66
2022/12/09 07:32:09;;;;;;;42.78;16.23;;;;;;;-2.35;100.00;92391.94;4999754;28;20042;-66
2022/12/09 07:34:37;;;;;;;62.47;17.70;;;;;;;-2.43;100.00;92386.50;5010788;28;20049;-66
2022/12/09 07:37:04;;;;;;;44.67;15.95;;;;;;;-2.22;100.00;92388.56;5024855;28;20050;-66
2022/12/09 07:39:31;;;;;;;51.58;17.77;;;;;;;-2.18;100.00;92380.53;4996029;28;20042;-66
2022/12/09 07:41:58;;;;;;;49.40;16.50;;;;;;;-2.04;100.00;92382.56;5009770;28;20038;-65
2022/12/09 07:44:27;;;;;;;47.00;17.10;;;;;;;-2.30;100.00;92381.59;5010344;28;20479;-67
2022/12/09 07:46:55;;;;;;;45.10;19.85;;;;;;;-2.04;100.00;92380.63;5009704;28;20054;-66
2022/12/09 07:49:23;;;;;;;48.70;19.98;;;;;;;-1.91;100.00;92375.75;5009280;28;20841;-66
2022/12/09 07:51:50;;;;;;;51.25;19.85;;;;;;;-1.79;100.00;92374.66;5010121;28;20041;-66
2022/12/09 07:54:18;;;;;;;53.85;19.83;;;;;;;-1.79;100.00;92382.72;5009738;28;20496;-66
2022/12/09 07:56:46;;;;;;;58.88;20.30;;;;;;;-1.76;100.00;92387.34;4996280;28;20108;-67
2022/12/09 07:59:14;;;;;;;53.92;22.17;;;;;;;-1.79;100.00;92377.34;5009584;28;20040;-66
2022/12/09 08:01:42;;;;;;;61.42;23.85;;;;;;;-1.95;100.00;92374.16;5009911;28;20065;-66
2022/12/09 08:04:09;;;;;;;49.35;21.08;;;;;;;-2.05;100.00;92365.66;5009397;28;20038;-66
2022/12/09 08:06:37;;;;;;;62.70;21.00;;;;;;;-1.99;100.00;92368.78;5009902;28;20459;-67
2022/12/09 08:09:07;;;;;;;57.42;23.83;;;;;;;-1.94;100.00;92370.34;5009118;28;20038;-66
2022/12/09 08:11:35;;;;;;;51.25;21.38;;;;;;;-1.66;100.00;92373.19;5010202;28;20048;-67
2022/12/09 08:14:05;;;;;;;43.10;17.52;;;;;;;-1.65;100.00;92372.06;4995658;28;20046;-66
2022/12/09 08:16:39;;;;;;;36.72;15.25;;;;;;;-1.70;100.00;92364.31;5009914;28;20517;-66
2022/12/09 08:19:06;;;;;;;39.90;15.43;;;;;;;-1.59;100.00;92374.38;5007987;28;20487;-67
2022/12/09 08:21:33;;;;;;;41.50;15.23;;;;;;;-1.41;100.00;92369.84;5009862;28;20052;-67
2022/12/09 08:24:04;;;;;;;40.30;16.10;;;;;;;-1.26;100.00;92362.63;5009263;28;20058;-66
2022/12/09 08:26:32;;;;;;;39.10;15.52;;;;;;;-1.19;100.00;92353.78;5007058;28;20050;-67
2022/12/09 08:29:00;;;;;;;43.05;16.30;;;;;;;-1.17;99.78;92356.88;5009390;28;20041;-66
2022/12/09 08:31:27;;;;;;;43.40;15.88;;;;;;;-1.21;99.98;92351.47;4981705;28;20518;-67
2022/12/09 08:33:55;;;;;;;42.65;16.00;;;;;;;-1.04;100.00;92356.16;5009314;28;20419;-67
2022/12/09 08:36:24;;;;;;;40.53;16.35;;;;;;;-0.96;99.31;92356.94;5008475;28;20652;-67
2022/12/09 08:38:52;;;;;;;53.70;17.75;;;;;;;-0.99;99.36;92348.84;5009765;28;20087;-67
2022/12/09 08:41:41;;;;;;;51.90;20.08;;;;;;;-1.06;99.08;92353.06;5009327;28;20068;-67
2022/12/09 08:44:19;;;;;;;48.95;17.67;;;;;;;-1.48;100.00;92356.38;5009097;28;20050;-67
2022/12/09 08:46:49;;;;;;;42.00;17.10;;;;;;;-1.19;100.00;92356.47;5009919;28;20045;-66
2022/12/09 08:49:18;;;;;;;49.13;19.23;;;;;;;-1.07;100.00;92359.59;5009075;28;20050;-67
2022/12/09 08:51:47;;;;;;;62.00;21.88;;;;;;;-1.01;99.76;92349.22;5011133;28;20475;-67
2022/12/09 08:54:14;;;;;;;40.33;16.17;;;;;;;-0.95;98.63;92355.00;5012668;28;20058;-67
2022/12/09 08:56:46;;;;;;;42.05;16.52;;;;;;;-1.08;99.35;92357.28;5000579;28;20206;-67
2022/12/09 08:59:14;;;;;;;42.53;16.40;;;;;;;-0.95;99.01;92357.69;5006662;28;20042;-67
2022/12/09 09:01:41;;;;;;;38.65;16.00;;;;;;;-1.73;100.00;92359.72;5012989;28;20446;-67
2022/12/09 09:04:11;;;;;;;46.55;17.30;;;;;;;-1.50;100.00;92367.50;5012638;28;20080;-67
2022/12/09 09:06:41;;;;;;;45.53;16.58;;;;;;;-1.58;100.00;92365.16;5013169;28;20553;-67
2022/12/09 09:09:10;;;;;;;38.40;15.95;;;;;;;-2.00;100.00;92361.84;4991819;28;20116;-68
2022/12/09 09:11:38;;;;;;;33.55;14.63;;;;;;;-2.17;100.00;92363.28;4983459;28;20038;-67
2022/12/09 09:14:07;;;;;;;34.10;14.77;;;;;;;-2.43;100.00;92356.19;4993081;28;20044;-66
2022/12/09 09:16:36;;;;;;;41.33;15.57;;;;;;;-2.93;100.00;92358.41;5001095;28;20077;-67
2022/12/09 09:19:04;;;;;;;33.42;14.00;;;;;;;-2.81;100.00;92348.19;5004865;28;20037;-67
2022/12/09 09:21:33;;;;;;;31.58;14.43;;;;;;;-2.46;100.00;92351.53;5012698;28;20042;-67
2022/12/09 09:24:00;;;;;;;38.47;14.43;;;;;;;-2.30;100.00;92354.72;5012229;28;20042;-66
2022/12/09 09:26:28;;;;;;;36.30;14.93;;;;;;;-2.33;99.74;92352.78;4996802;28;20056;-67
2022/12/09 09:28:56;;;;;;;39.08;15.23;;;;;;;-2.72;99.64;92349.78;5013027;28;20038;-67
2022/12/09 09:31:24;;;;;;;34.97;16.35;;;;;;;-2.86;100.00;92350.41;5011882;28;20890;-67
2022/12/09 09:33:51;;;;;;;43.38;15.65;;;;;;;-2.22;99.61;92356.31;5012613;28;20073;-67
2022/12/09 09:36:23;;;;;;;52.63;16.58;;;;;;;-2.41;100.00;92357.34;5011849;28;20069;-66
2022/12/09 09:38:53;;;;;;;36.17;15.40;;;;;;;-2.43;99.55;92358.88;5012562;28;20045;-67
2022/12/09 09:41:23;;;;;;;36.47;15.13;;;;;;;-2.28;100.00;92354.34;5026928;28;20146;-67
2022/12/09 09:43:51;;;;;;;33.60;15.25;;;;;;;-1.97;98.43;92349.56;4999121;28;20050;-67
2022/12/09 09:46:38;;;;;;;48.58;18.60;;;;;;;-1.80;97.52;92343.53;5011958;28;20076;-67
2022/12/09 09:49:17;;;;;;;39.60;16.23;;;;;;;-1.68;97.44;92345.91;5010844;28;20054;-67
2022/12/09 09:51:46;;;;;;;36.78;16.42;;;;;;;-1.63;95.68;92350.94;5012736;28;20479;-67
2022/12/09 09:54:14;;;;;;;36.28;15.65;;;;;;;-1.70;96.75;92353.56;5011215;28;20042;-67
2022/12/09 09:56:53;;;;;;;33.38;14.23;;;;;;;-1.66;96.88;92353.59;5010222;28;20066;-67
2022/12/09 09:59:44;;;;;;;38.60;15.10;;;;;;;-1.68;96.64;92348.59;5011746;28;20479;-67
2022/12/09 10:02:21;;;;;;;38.00;16.33;;;;;;;-2.27;99.13;92345.94;5010544;28;20510;-67
2022/12/09 10:05:12;;;;;;;34.58;15.13;;;;;;;-1.75;97.49;92350.47;5012210;28;20056;-67
2022/12/09 10:07:41;;;;;;;36.50;16.35;;;;;;;-2.17;98.07;92341.00;4998188;28;20711;-66
2022/12/09 10:10:18;;;;;;;50.10;17.33;;;;;;;-2.31;99.24;92345.13;5007252;28;20087;-66
2022/12/09 10:13:05;;;;;;;36.33;17.00;;;;;;;-2.16;99.08;92347.91;5012275;28;20091;-67
2022/12/09 10:16:12;;;;;;;36.55;15.77;;;;;;;-2.02;98.68;92342.63;5010503;28;21569;-67
2022/12/09 10:18:51;;;;;;;40.17;17.20;;;;;;;-2.09;98.71;92350.66;4989275;28;20406;-67
2022/12/09 10:21:20;;;;;;;40.72;16.38;;;;;;;-2.22;99.67;92347.50;5007694;28;20038;-67
2022/12/09 10:23:48;;;;;;;36.17;15.48;;;;;;;-2.31;100.00;92339.75;5011566;28;20052;-66
2022/12/09 10:26:24;;;;;;;41.60;16.48;;;;;;;-2.18;100.00;92332.16;5006640;28;20061;-66
2022/12/09 10:29:16;;;;;;;41.40;16.60;;;;;;;-2.05;100.00;92328.03;5011675;28;20048;-67
2022/12/09 10:31:43;;;;;;;36.97;15.63;;;;;;;-2.05;99.17;92325.34;5010533;28;20191;-66
2022/12/09 10:34:12;;;;;;;47.92;16.67;;;;;;;-2.08;98.68;92322.63;5011108;28;20050;-67
2022/12/09 10:36:43;;;;;;;35.85;16.42;;;;;;;-1.87;98.33;92311.22;5011799;28;20048;-67
2022/12/09 10:39:20;;;;;;;35.83;15.30;;;;;;;-1.22;96.96;92302.25;5010634;28;20038;-66
2022/12/09 10:44:38;;;;;;;38.63;16.45;;;;;;;-1.69;95.30;92295.16;5010355;28;21574;-66
2022/12/09 10:47:25;;;;;;;39.95;16.92;;;;;;;-1.41;96.67;92286.44;5010671;28;20042;-66
2022/12/09 10:49:54;;;;;;;36.00;16.50;;;;;;;-1.28;94.28;92278.78;5011405;28;20042;-67
2022/12/09 10:52:35;;;;;;;36.93;15.37;;;;;;;-1.13;94.87;92277.66;5010565;28;20487;-66
2022/12/09 10:55:03;;;;;;;36.00;16.08;;;;;;;-0.87;93.28;92271.16;5010379;28;20041;-66
2022/12/09 10:57:29;;;;;;;37.20;16.05;;;;;;;-0.78;92.80;92273.47;5011301;28;20042;-66
2022/12/09 10:59:59;;;;;;;39.00;15.90;;;;;;;-0.78;91.96;92270.78;4999322;28;20058;-65
2022/12/09 11:02:28;;;;;;;37.70;16.15;;;;;;;-1.22;93.88;92267.25;4995530;28;20096;-66
2022/12/09 11:05:21;;;;;;;45.38;17.08;;;;;;;-1.47;94.68;92269.13;5011054;28;20517;-66
2022/12/09 11:07:50;;;;;;;40.05;15.35;;;;;;;-1.73;95.85;92273.66;5000209;28;20131;-66
2022/12/09 11:10:23;;;;;;;34.53;15.82;;;;;;;-1.22;96.22;92264.56;4991358;28;20407;-66
2022/12/09 11:13:01;;;;;;;45.60;17.38;;;;;;;-1.85;97.88;92272.06;4997295;28;20077;-66
2022/12/09 11:15:38;;;;;;;40.88;17.52;;;;;;;-2.16;99.61;92265.38;5006751;28;20357;-66
2022/12/09 11:18:16;;;;;;;39.13;16.55;;;;;;;-1.79;99.71;92269.78;4998971;28;20044;-66
2022/12/09 11:20:54;;;;;;;46.03;17.92;;;;;;;-1.64;98.92;92266.00;5010849;28;20399;-66
2022/12/09 11:23:21;;;;;;;40.90;17.20;;;;;;;-1.56;99.78;92258.72;5009950;28;20038;-66
2022/12/09 11:26:04;;;;;;;40.20;17.52;;;;;;;-1.58;98.75;92257.56;4996951;28;20038;-66
2022/12/09 11:28:34;;;;;;;41.25;17.00;;;;;;;-1.64;98.82;92259.84;5009400;28;20585;-67
2022/12/09 11:31:12;;;;;;;40.30;17.42;;;;;;;-1.83;99.59;92253.63;5009732;28;20046;-66
2022/12/09 11:33:59;;;;;;;40.22;17.40;;;;;;;-1.43;99.04;92246.47;5010489;28;20042;-66
2022/12/09 11:36:40;;;;;;;49.78;20.85;;;;;;;-1.37;97.97;92249.53;5009575;28;20054;-66